Walton, KY

12:45 AM EDT on August 31, 2015 (GMT -0400)
Walton, KY | | Change Station
CLOSE
Current Station
Personal Weather Station
Location: Walton, KY
Elevation: 915 ft
Nearby Weather Stations

Elev 915 ft 38.88 °N, 84.61 °W | Updated 9 minutes ago

Partly Cloudy
Partly Cloudy
70.2 °F
Feels Like 70.2 °F
N
1.6
Wind Variable Wind from North

Today
High -- | Low -- °F
--% Chance of Precip.
Yesterday
High -- | Low -- °F
Precip. -- in
7:06 AM 8:10 PM
Full, 97% visible
Pressure 30.06 in
Visibility 10.0 miles
Clouds Scattered Clouds 12000 ft
Scattered Clouds 17000 ft
Mostly Cloudy 25000 ft
Dew Point 67 °F
Humidity 89%
Rainfall 0.00 in
Snow Depth Not available.
UV 0 out of 12
Pollen 10.10 out of 12
Air Quality Not available.
Flu Activity Not available.
METAR KCVG 310352Z 20005KT 10SM SCT120 SCT170 BKN250 22/19 A3009 RMK AO2 SLP179 T02220194
Pressure 30.06 in
Visibility 10.0 miles
Clouds Scattered Clouds 12000 ft
Scattered Clouds 17000 ft
Mostly Cloudy 25000 ft
Dew Point 67 °F
Humidity 89%
Rainfall 0.00 in
Snow Depth Not available.
UV 0 out of 12
Pollen 10.10 out of 12
Air Quality Not available.
Flu Activity Not available.
METAR KCVG 310352Z 20005KT 10SM SCT120 SCT170 BKN250 22/19 A3009 RMK AO2 SLP179 T02220194

10-Day Weather Forecast

×

Almanac

Astronomy

Aug. 31, 2015 Rise Set
Actual Time
Civil Twilight
Nautical Twilight
Astronomical Twilight
Moon
Length of Visible Light
Length of Day
Tomorrow will be .
, % of the Moon is Illuminated

Today's Extremes

State Highs State Lows

Community

WunderPhotos

Upload Photos

1,851,207 photos uploaded!

WunderBlogs® & News

Nearby

Air Quality

  Air Quality AQ Index Pollutant
Not available.

Snow Depth

Station Depth Elevation

Earthquake Activity

City Distance Mag. Time & Date
Minimum magnitude displayed is 2.5.

Coastal Water Temperatures

Place Temperature

Stations

Nearby Weather Stations

Station Location Temp. Windchill Dew Point Humidity Wind Precip. Elev Updated Type